Accueil
METAR-TAF:

METAR-TAF

Aéroports :

Base aérienne 123 Orléans-Bricy

Orléans, France

latitude: 47-59N, longitude: 001-45E, altitude: 126 m

Observation

Le bulletin a été fait il y a 10 minutes, à 23:30 UTC
Vent 4 kt de nord-est
Température 13°C
Humidité 82%
Pression 1024 hPa
Visibilité 10 km ou plus
pas de nuages en-dessous de 1500 mètres et pas de cumulonimbus.

METAR: LFOJ 232330Z AUTO 04004KT CAVOK 13/10 Q1024

Heure: 01:40 (23:40 UTC)

Prévision

Le bulletin a été fait il y a 15 heures et 40 minutes, à 08:00 UTC
Prévision valable du 23 à 09 UTC au 24 à 09 UTC
Vent 11 kt de nord-est
Visibilité 10 km ou plus
pas de nuages en-dessous de 1500 mètres et pas de cumulonimbus.
Temporairement
du 23 à 11 UTC au 23 à 17 UTC
Vent 10 kt de nord-est avec des rafales jusqu'à 20 kt

TAF: LFOJ 230800Z 2309/2409 05011KT CAVOK TEMPO 2311/2317 04010G20KT

Observations et prévisions météorologiques de plus de 4000 aéroports (messages METAR et TAF).

Les stations disponibles sont représentées par des disques jaunes et rouges sur la carte.

Passer la souris dessus pour voir le nom de la station.

Cliquer dessus pour voir les observations et prévisions météorologiques.

Pour changer de carte: cliquez sur les boutons verts avec une croix noire pour zoomer, sur le bouton vert avec un tiret pour effectuer un zoom arrière, ou sur les flèches vertes pour les cartes adjacentes.


METAR-TAF: